Terminal Aerodrome Forecast
Issued by NWS

Home | Current Version | Previous Version | Text Only | Print | Product List | Glossary On
Versions: 1 2 3 4 5 6 7 8 9 10 11 12 13 14
000
FTUS44 KLZK 251734
TAFHOT
TAF
KHOT 251734Z 2518/2618 VRB06KT P6SM VCTS BKN015 OVC030CB
      TEMPO 2518/2519 5SM -TSRA BR
     FM252000 18008G16KT P6SM SCT025 BKN050
     FM260100 17006KT P6SM SCT050 BKN250
     FM260800 16006KT 6SM BR BKN025 OVC050
     FM261500 17008KT P6SM BKN050=

USA.gov is the U.S. government's official web portal to all federal, state and local government web resources and services.